Time;durP1;ratioP1;P1;durP2;ratioP2;P2;SDS_P1;SDS_P2;PMS_P1;PMS_P2;Temp;Humidity;BMP_temperature;BMP_pressure;BME280_temperature;BME280_humidity;BME280_pressure;Samples;Min_cycle;Max_cycle;Signal;HPM_P1;HPM_P2
2023/12/07 00:00:50;;;;;;;13.00;6.00;;;2.80;99.90;;;;;;5095291;28;20047;-58
2023/12/07 00:03:16;;;;;;;10.32;5.28;;;2.90;99.90;;;;;;5095401;28;20048;-57
2023/12/07 00:05:41;;;;;;;11.40;5.40;;;2.80;99.90;;;;;;5093609;28;20088;-58
2023/12/07 00:08:10;;;;;;;10.32;5.40;;;2.90;99.90;;;;;;5094908;28;20144;-57
2023/12/07 00:10:36;;;;;;;11.50;5.97;;;2.80;99.90;;;;;;5095190;28;20048;-57
2023/12/07 00:13:02;;;;;;;10.40;5.13;;;2.90;99.90;;;;;;5094965;28;20054;-57
2023/12/07 00:15:28;;;;;;;10.93;5.43;;;2.80;99.90;;;;;;5095070;28;20094;-58
2023/12/07 00:17:53;;;;;;;9.18;4.70;;;2.90;99.90;;;;;;5094812;28;20802;-57
2023/12/07 00:20:19;;;;;;;10.90;5.68;;;2.90;99.90;;;;;;5094884;28;20132;-57
2023/12/07 00:22:45;;;;;;;12.95;6.13;;;2.90;99.90;;;;;;5094877;28;20084;-57
2023/12/07 00:25:11;;;;;;;9.53;4.87;;;2.90;99.90;;;;;;5094842;28;20044;-57
2023/12/07 00:27:37;;;;;;;10.35;5.57;;;2.90;99.90;;;;;;5094670;28;20286;-58
2023/12/07 00:30:03;;;;;;;10.23;5.23;;;2.90;99.90;;;;;;5094642;28;20090;-57
2023/12/07 00:32:29;;;;;;;11.88;5.40;;;2.90;99.90;;;;;;5093371;28;20051;-57
2023/12/07 00:34:55;;;;;;;12.00;5.83;;;2.90;99.90;;;;;;5093909;28;20044;-57
2023/12/07 00:37:21;;;;;;;11.30;5.88;;;2.90;99.90;;;;;;5094749;28;20127;-58
2023/12/07 00:39:46;;;;;;;10.87;5.07;;;2.90;99.90;;;;;;5094642;28;20093;-57
2023/12/07 00:42:12;;;;;;;10.45;5.47;;;2.90;99.90;;;;;;5094533;28;20051;-57
2023/12/07 00:44:41;;;;;;;11.27;5.27;;;2.90;99.90;;;;;;5093271;28;20157;-57
2023/12/07 00:47:07;;;;;;;9.60;5.22;;;2.90;99.90;;;;;;5094534;28;20082;-58
2023/12/07 00:49:33;;;;;;;12.88;5.07;;;2.90;99.90;;;;;;5093305;28;20083;-57
2023/12/07 00:51:59;;;;;;;11.50;5.20;;;2.90;99.90;;;;;;5094430;28;20044;-57
2023/12/07 00:54:24;;;;;;;15.67;5.37;;;2.90;99.90;;;;;;5094453;28;20047;-58
2023/12/07 00:56:51;;;;;;;10.33;5.10;;;2.90;99.90;;;;;;5094165;28;20040;-58
2023/12/07 00:59:16;;;;;;;13.48;5.38;;;2.90;99.90;;;;;;5094325;28;20062;-58
2023/12/07 01:01:42;;;;;;;13.00;5.93;;;2.90;99.90;;;;;;5094092;28;20040;-58
2023/12/07 01:04:08;;;;;;;12.35;5.70;;;2.90;99.90;;;;;;5092952;28;20137;-57
2023/12/07 01:06:33;;;;;;;11.68;6.05;;;2.80;99.90;;;;;;5093911;28;20040;-58
2023/12/07 01:08:59;;;;;;;10.37;5.07;;;2.90;99.90;;;;;;5093918;28;20051;-57
2023/12/07 01:11:25;;;;;;;12.13;5.47;;;2.90;99.90;;;;;;5094084;28;20048;-58
2023/12/07 01:13:51;;;;;;;12.27;5.88;;;2.80;99.90;;;;;;5093774;28;20057;-57
2023/12/07 01:16:16;;;;;;;11.47;5.53;;;2.90;99.90;;;;;;5093090;28;20089;-57
2023/12/07 01:18:42;;;;;;;12.37;5.47;;;2.80;99.90;;;;;;5094451;28;20109;-57
2023/12/07 01:21:07;;;;;;;10.13;5.23;;;2.80;99.90;;;;;;5094018;28;20040;-57
2023/12/07 01:23:33;;;;;;;10.93;4.63;;;2.80;99.90;;;;;;5093891;28;20138;-57
2023/12/07 01:26:02;;;;;;;9.63;4.55;;;2.90;99.90;;;;;;5092483;28;20105;-57
2023/12/07 01:28:28;;;;;;;9.57;4.78;;;2.80;99.90;;;;;;5093865;28;20044;-57
2023/12/07 01:30:53;;;;;;;9.67;5.00;;;2.80;99.90;;;;;;5094030;28;20052;-57
2023/12/07 01:33:19;;;;;;;10.37;5.13;;;2.90;99.90;;;;;;5093848;28;20364;-57
2023/12/07 01:35:45;;;;;;;9.65;5.35;;;2.90;99.90;;;;;;5092744;28;20092;-57
2023/12/07 01:38:10;;;;;;;9.93;4.38;;;2.90;99.90;;;;;;5093809;28;20130;-57
2023/12/07 01:40:36;;;;;;;10.67;4.90;;;2.90;99.90;;;;;;5093926;28;20068;-57
2023/12/07 01:43:02;;;;;;;10.40;4.65;;;2.90;99.90;;;;;;5093448;28;20036;-57
2023/12/07 01:45:28;;;;;;;10.27;5.43;;;2.90;99.90;;;;;;5077876;28;20093;-57
2023/12/07 01:47:56;;;;;;;9.75;4.97;;;2.90;99.90;;;;;;5097890;28;20052;-57
2023/12/07 01:50:23;;;;;;;11.43;5.03;;;2.80;99.90;;;;;;5096855;28;20497;-57
2023/12/07 01:52:51;;;;;;;;;;;2.80;99.90;;;;;;5098318;28;20140;-57
2023/12/07 01:55:17;;;;;;;9.30;4.60;;;2.90;99.90;;;;;;5097688;28;19920;-57
2023/12/07 01:57:44;;;;;;;10.07;4.75;;;2.90;99.90;;;;;;5097770;28;20062;-57
2023/12/07 02:00:12;;;;;;;10.20;4.97;;;2.80;99.90;;;;;;5097744;28;20048;-57
2023/12/07 02:02:38;;;;;;;9.90;5.07;;;2.80;99.90;;;;;;5097942;28;20040;-57
2023/12/07 02:05:05;;;;;;;9.52;5.00;;;2.80;99.90;;;;;;5097140;28;20064;-57
2023/12/07 02:07:31;;;;;;;10.30;4.75;;;2.80;99.90;;;;;;5097459;28;20044;-57
2023/12/07 02:09:58;;;;;;;12.00;5.90;;;2.80;99.90;;;;;;5097380;28;20524;-57
2023/12/07 02:12:24;;;;;;;;;;;2.80;99.90;;;;;;5097584;28;20047;-57
2023/12/07 02:14:50;;;;;;;13.20;6.05;;;2.80;99.90;;;;;;5097631;28;20331;-57
2023/12/07 02:17:24;;;;;;;11.20;5.53;;;2.80;99.90;;;;;;5097307;28;20075;-57
2023/12/07 02:20:29;;;;;;;9.68;5.35;;;2.80;99.90;;;;;;5097322;28;20136;-57
2023/12/07 02:22:57;;;;;;;10.38;5.20;;;2.80;99.90;;;;;;5055727;28;20091;-57
2023/12/07 02:25:53;;;;;;;8.63;5.45;;;2.80;99.90;;;;;;5096140;28;20047;-57
2023/12/07 02:28:18;;;;;;;12.73;5.20;;;2.80;99.90;;;;;;5095794;28;20134;-57
2023/12/07 02:30:44;;;;;;;10.45;4.95;;;2.80;99.90;;;;;;5095659;28;20079;-57
2023/12/07 02:33:11;;;;;;;8.77;4.20;;;2.80;99.90;;;;;;5096767;28;20090;-57
2023/12/07 02:35:37;;;;;;;11.02;5.20;;;2.80;99.90;;;;;;5096947;28;20040;-57
2023/12/07 02:38:05;;;;;;;9.82;5.18;;;2.80;99.90;;;;;;5096975;28;20084;-57
2023/12/07 02:40:32;;;;;;;9.38;4.55;;;2.90;99.90;;;;;;5096950;28;20093;-58
2023/12/07 02:42:59;;;;;;;9.32;4.90;;;2.80;99.90;;;;;;5096751;28;20186;-57
2023/12/07 02:45:25;;;;;;;;;;;2.80;99.90;;;;;;5096812;28;20471;-57
2023/12/07 02:47:51;;;;;;;8.93;4.57;;;2.90;99.90;;;;;;5095857;28;20270;-57
2023/12/07 02:50:17;;;;;;;10.48;5.07;;;2.80;99.90;;;;;;5096787;28;20131;-57
2023/12/07 02:52:42;;;;;;;9.93;5.47;;;2.80;99.90;;;;;;5096687;28;20051;-57
2023/12/07 02:55:09;;;;;;;11.75;5.63;;;2.80;99.90;;;;;;5096686;28;20502;-57
2023/12/07 02:57:35;;;;;;;9.43;4.97;;;2.80;99.90;;;;;;5096454;28;20044;-57
2023/12/07 03:00:01;;;;;;;9.17;4.77;;;2.80;99.90;;;;;;5096306;28;20097;-58
2023/12/07 03:02:26;;;;;;;13.45;5.03;;;2.80;99.90;;;;;;5096535;28;20058;-57
2023/12/07 03:04:52;;;;;;;9.98;5.10;;;2.80;99.90;;;;;;5096247;28;20139;-57
2023/12/07 03:07:18;;;;;;;11.52;5.25;;;2.80;99.90;;;;;;5096793;28;20465;-57
2023/12/07 03:09:43;;;;;;;10.83;5.23;;;2.80;99.90;;;;;;5096461;28;20086;-57
2023/12/07 03:12:09;;;;;;;14.03;5.60;;;2.80;99.90;;;;;;5096335;28;20048;-57
2023/12/07 03:14:35;;;;;;;11.63;5.47;;;2.80;99.90;;;;;;5096305;28;20055;-57
2023/12/07 03:17:00;;;;;;;9.77;4.77;;;2.80;99.90;;;;;;5096131;28;20040;-57
2023/12/07 03:19:26;;;;;;;11.53;5.27;;;2.80;99.90;;;;;;5096528;28;20048;-57
2023/12/07 03:21:52;;;;;;;11.87;4.93;;;2.80;99.90;;;;;;5096122;28;20059;-57
2023/12/07 03:24:18;;;;;;;9.33;4.43;;;2.80;99.90;;;;;;5096306;28;20096;-57
2023/12/07 03:26:43;;;;;;;11.27;5.05;;;2.80;99.90;;;;;;5095844;28;20040;-57
2023/12/07 03:29:09;;;;;;;9.57;5.03;;;2.90;99.90;;;;;;5095908;28;20560;-57
2023/12/07 03:31:35;;;;;;;10.37;4.90;;;2.80;99.90;;;;;;5095707;28;20506;-57
2023/12/07 03:34:01;;;;;;;9.75;4.78;;;2.80;99.90;;;;;;5095964;28;20282;-57
2023/12/07 03:36:27;;;;;;;11.77;5.70;;;2.80;99.90;;;;;;5095905;28;20394;-57
2023/12/07 03:38:53;;;;;;;9.88;4.55;;;2.80;99.90;;;;;;5095792;28;20094;-57
2023/12/07 03:41:18;;;;;;;11.45;4.95;;;2.80;99.90;;;;;;5095853;28;20075;-57
2023/12/07 03:43:44;;;;;;;11.03;4.90;;;2.80;99.90;;;;;;5095629;28;20415;-57
2023/12/07 03:46:10;;;;;;;10.07;4.93;;;2.80;99.90;;;;;;5095330;28;20093;-57
2023/12/07 03:48:36;;;;;;;9.13;4.47;;;2.80;99.90;;;;;;5096029;28;20048;-57
2023/12/07 03:51:01;;;;;;;9.17;4.63;;;2.80;99.90;;;;;;5095667;28;20372;-57
2023/12/07 03:53:27;;;;;;;10.07;4.70;;;2.80;99.90;;;;;;5095734;28;20471;-57
2023/12/07 03:55:53;;;;;;;8.17;4.07;;;2.80;99.90;;;;;;5095473;28;20047;-57
2023/12/07 03:58:19;;;;;;;8.88;4.93;;;2.80;99.90;;;;;;5095401;28;20278;-58
2023/12/07 04:00:45;;;;;;;8.60;4.03;;;2.80;99.90;;;;;;5095355;28;20483;-57
2023/12/07 04:03:11;;;;;;;7.82;4.10;;;2.80;99.90;;;;;;5095428;28;20448;-57
2023/12/07 04:05:38;;;;;;;8.60;3.75;;;2.80;99.90;;;;;;5095516;28;20052;-57
2023/12/07 04:08:06;;;;;;;6.72;3.58;;;2.80;99.90;;;;;;5094672;28;20506;-57
2023/12/07 04:10:32;;;;;;;8.30;3.67;;;2.80;99.90;;;;;;5095143;28;20047;-57
2023/12/07 04:12:58;;;;;;;8.27;3.95;;;2.80;99.90;;;;;;5095033;28;20044;-57
2023/12/07 04:15:23;;;;;;;7.07;3.40;;;2.80;99.90;;;;;;5094974;28;20126;-57
2023/12/07 04:17:49;;;;;;;7.32;3.63;;;2.90;99.90;;;;;;5095150;28;20048;-57
2023/12/07 04:20:15;;;;;;;7.13;3.40;;;2.90;99.90;;;;;;5095026;28;20050;-57
2023/12/07 04:22:41;;;;;;;7.43;3.45;;;2.80;99.90;;;;;;5095024;28;20052;-57
2023/12/07 04:25:07;;;;;;;7.68;3.47;;;2.90;99.90;;;;;;5094658;28;20479;-57
2023/12/07 04:27:33;;;;;;;7.25;3.20;;;2.90;99.90;;;;;;5094901;28;20040;-57
2023/12/07 04:29:59;;;;;;;7.07;3.43;;;2.90;99.90;;;;;;5076894;28;20043;-57
2023/12/07 04:32:25;;;;;;;6.82;2.90;;;2.80;99.90;;;;;;5094739;28;20323;-57
2023/12/07 04:34:52;;;;;;;8.10;3.78;;;2.90;99.90;;;;;;5094633;28;20459;-57
2023/12/07 04:37:18;;;;;;;;;;;2.80;99.90;;;;;;5094897;28;20048;-57
2023/12/07 04:39:43;;;;;;;8.60;3.47;;;2.80;99.90;;;;;;5094545;28;19930;-57
2023/12/07 04:42:09;;;;;;;8.15;4.18;;;2.80;99.90;;;;;;5094494;28;20052;-57
2023/12/07 04:44:35;;;;;;;8.23;4.00;;;2.80;99.90;;;;;;5094571;28;20047;-57
2023/12/07 04:47:00;;;;;;;7.37;3.30;;;2.70;99.90;;;;;;5094679;28;20066;-57
2023/12/07 04:49:26;;;;;;;7.70;3.60;;;2.70;99.90;;;;;;5094388;28;20044;-57
2023/12/07 04:51:52;;;;;;;8.90;4.30;;;2.70;99.90;;;;;;5094491;28;20047;-57
2023/12/07 04:54:19;;;;;;;6.82;3.47;;;2.70;99.90;;;;;;5094417;28;20282;-57
2023/12/07 04:56:45;;;;;;;7.68;3.72;;;2.70;99.90;;;;;;5094430;28;20110;-57
2023/12/07 04:59:10;;;;;;;8.13;3.60;;;2.60;99.90;;;;;;5094081;28;20048;-57
2023/12/07 05:01:36;;;;;;;7.70;3.65;;;2.70;99.90;;;;;;5094026;28;20044;-57
2023/12/07 05:04:03;;;;;;;7.63;3.70;;;2.60;99.90;;;;;;5094444;28;20129;-57
2023/12/07 05:06:30;;;;;;;7.97;3.30;;;2.60;99.90;;;;;;5094189;28;20044;-57
2023/12/07 05:08:56;;;;;;;6.72;3.65;;;2.60;99.90;;;;;;5094098;28;20083;-57
2023/12/07 05:11:21;;;;;;;9.43;3.90;;;2.60;99.90;;;;;;5094149;28;20137;-57
2023/12/07 05:13:47;;;;;;;7.70;3.93;;;2.70;99.90;;;;;;5093837;28;20049;-57
2023/12/07 05:16:14;;;;;;;7.25;3.80;;;2.70;99.90;;;;;;5093997;28;20047;-57
2023/12/07 05:18:40;;;;;;;8.40;3.90;;;2.70;99.90;;;;;;5094127;28;20044;-57
2023/12/07 05:21:06;;;;;;;8.13;4.05;;;2.70;99.90;;;;;;5093488;28;20063;-57
2023/12/07 05:23:32;;;;;;;7.20;3.80;;;2.70;99.90;;;;;;5093083;28;20040;-57
2023/12/07 05:25:57;;;;;;;7.05;3.88;;;2.60;99.90;;;;;;5093669;28;20040;-58
2023/12/07 05:28:23;;;;;;;8.55;4.13;;;2.70;99.90;;;;;;5093651;28;20493;-57
2023/12/07 05:30:49;;;;;;;7.75;4.03;;;2.70;99.90;;;;;;5093905;28;20444;-57
2023/12/07 05:33:15;;;;;;;8.07;3.97;;;2.70;99.90;;;;;;5092857;28;20047;-57
2023/12/07 05:35:41;;;;;;;8.32;3.90;;;2.70;99.90;;;;;;5092738;28;20113;-57
2023/12/07 05:38:07;;;;;;;8.57;3.90;;;2.70;99.90;;;;;;5094102;28;20040;-57
2023/12/07 05:40:33;;;;;;;8.30;3.77;;;2.80;99.90;;;;;;5093836;28;20559;-57
2023/12/07 05:42:59;;;;;;;9.30;3.83;;;2.70;99.90;;;;;;5093470;28;20051;-57
2023/12/07 05:45:26;;;;;;;6.47;3.47;;;2.80;99.90;;;;;;5093810;28;20073;-57
2023/12/07 05:47:51;;;;;;;7.53;4.00;;;2.80;99.90;;;;;;5093739;28;20402;-57
2023/12/07 05:50:17;;;;;;;7.95;3.60;;;2.80;99.90;;;;;;5093692;28;20131;-57
2023/12/07 05:52:43;;;;;;;7.47;3.53;;;2.80;99.90;;;;;;5092953;28;20113;-57
2023/12/07 05:55:09;;;;;;;7.22;3.55;;;2.80;99.90;;;;;;5093427;28;20273;-57
2023/12/07 05:57:35;;;;;;;8.50;4.13;;;2.80;99.90;;;;;;5093429;28;20105;-57
2023/12/07 06:00:01;;;;;;;7.13;3.65;;;2.90;99.90;;;;;;5093674;28;20045;-57
2023/12/07 06:02:26;;;;;;;9.00;4.17;;;2.80;99.90;;;;;;5093580;28;20440;-57
2023/12/07 06:04:53;;;;;;;8.20;4.13;;;2.80;99.90;;;;;;5093220;28;20513;-57
2023/12/07 06:07:18;;;;;;;7.97;3.35;;;2.80;99.90;;;;;;5092577;28;20048;-57
2023/12/07 06:09:44;;;;;;;7.83;3.40;;;2.80;99.90;;;;;;5093362;28;20070;-57
2023/12/07 06:12:10;;;;;;;8.02;3.47;;;2.80;99.90;;;;;;5093369;28;20471;-57
2023/12/07 06:14:35;;;;;;;8.30;3.95;;;2.80;99.90;;;;;;5093700;28;20374;-57
2023/12/07 06:17:01;;;;;;;9.47;4.43;;;2.80;99.90;;;;;;5093465;28;20044;-57
2023/12/07 06:19:27;;;;;;;8.33;3.90;;;2.80;99.90;;;;;;5093365;28;20040;-57
2023/12/07 06:21:52;;;;;;;8.00;3.83;;;2.80;99.90;;;;;;5093367;28;20048;-57
2023/12/07 06:24:18;;;;;;;7.53;3.27;;;2.80;99.90;;;;;;5093132;28;20083;-56
2023/12/07 06:26:44;;;;;;;8.05;4.07;;;2.80;99.90;;;;;;5093130;28;20051;-58
2023/12/07 06:29:09;;;;;;;9.65;4.13;;;2.80;99.90;;;;;;5092316;28;20089;-57
2023/12/07 06:31:35;;;;;;;9.43;4.30;;;2.80;99.90;;;;;;5095164;28;20040;-57
2023/12/07 06:34:01;;;;;;;9.40;3.97;;;2.80;99.90;;;;;;5096151;28;20055;-57
2023/12/07 06:36:27;;;;;;;9.30;3.70;;;2.70;99.90;;;;;;5097068;28;20072;-57
2023/12/07 06:38:54;;;;;;;10.05;3.97;;;2.80;99.90;;;;;;5097007;28;20047;-58
2023/12/07 06:41:20;;;;;;;9.10;4.75;;;2.80;99.90;;;;;;5096715;28;20410;-57
2023/12/07 06:43:46;;;;;;;9.10;4.00;;;2.80;99.90;;;;;;5096977;28;20040;-57
2023/12/07 06:46:12;;;;;;;9.60;4.60;;;2.80;99.90;;;;;;5097016;28;20526;-57
2023/12/07 06:48:38;;;;;;;9.38;4.63;;;2.80;99.90;;;;;;5096749;28;20082;-57
2023/12/07 06:51:04;;;;;;;9.20;4.85;;;2.80;99.90;;;;;;5096634;28;20052;-57
2023/12/07 06:53:31;;;;;;;9.27;4.57;;;2.80;99.90;;;;;;5096619;28;20040;-57
2023/12/07 06:55:57;;;;;;;;;;;2.80;99.90;;;;;;5097071;28;20040;-57
2023/12/07 06:58:23;;;;;;;8.85;3.85;;;2.70;99.90;;;;;;5097037;28;20361;-57
2023/12/07 07:00:49;;;;;;;11.18;4.95;;;2.70;99.90;;;;;;5096600;28;20505;-57
2023/12/07 07:03:15;;;;;;;9.75;5.00;;;2.80;99.90;;;;;;5095794;28;20048;-57
2023/12/07 07:05:41;;;;;;;9.87;4.53;;;2.80;99.90;;;;;;5096063;28;20094;-57
2023/12/07 07:08:08;;;;;;;8.70;4.43;;;2.80;99.90;;;;;;5096802;28;20510;-57
2023/12/07 07:10:34;;;;;;;9.18;4.15;;;2.80;99.90;;;;;;5096314;28;20105;-57
2023/12/07 07:13:04;;;;;;;9.77;4.50;;;2.80;99.90;;;;;;5096390;28;20048;-57
2023/12/07 07:15:33;;;;;;;7.65;3.90;;;2.80;99.90;;;;;;5096332;28;20133;-58
2023/12/07 07:17:58;;;;;;;8.65;4.65;;;2.80;99.90;;;;;;5096287;28;20040;-57
2023/12/07 07:20:25;;;;;;;137.80;102.22;;;2.80;99.90;;;;;;5095072;28;20059;-57
2023/12/07 07:22:51;;;;;;;24.30;16.92;;;2.90;99.90;;;;;;5094928;28;20475;-57
2023/12/07 07:25:18;;;;;;;12.23;5.97;;;2.80;99.90;;;;;;5095775;28;20047;-57
2023/12/07 07:27:47;;;;;;;10.20;5.50;;;2.80;99.90;;;;;;5095987;28;20486;-57
2023/12/07 07:30:13;;;;;;;10.90;4.47;;;2.90;99.90;;;;;;5096093;28;20044;-57
2023/12/07 07:32:39;;;;;;;9.98;4.88;;;2.80;99.90;;;;;;5095994;28;20044;-57
2023/12/07 07:35:05;;;;;;;11.43;5.17;;;2.80;99.90;;;;;;5095895;28;20116;-57
2023/12/07 07:37:31;;;;;;;7.80;4.07;;;2.80;99.90;;;;;;5095724;28;20321;-57
2023/12/07 07:39:57;;;;;;;9.35;4.50;;;2.80;99.90;;;;;;5095873;28;20328;-57
2023/12/07 07:42:22;;;;;;;11.87;4.60;;;2.80;99.90;;;;;;5094925;28;20493;-57
2023/12/07 07:44:48;;;;;;;7.20;3.80;;;2.80;99.90;;;;;;5096120;28;20529;-57
2023/12/07 07:47:14;;;;;;;8.63;4.30;;;2.80;99.90;;;;;;5095583;28;20406;-57
2023/12/07 07:49:39;;;;;;;10.40;4.70;;;2.80;99.90;;;;;;5095713;28;20075;-57
2023/12/07 07:52:05;;;;;;;9.57;4.60;;;2.90;99.90;;;;;;5094416;28;20131;-57
2023/12/07 07:54:31;;;;;;;8.57;4.03;;;2.80;99.90;;;;;;5095355;28;20048;-57
2023/12/07 07:56:57;;;;;;;11.35;4.80;;;2.90;99.90;;;;;;5095902;28;20044;-57
2023/12/07 07:59:22;;;;;;;9.53;4.60;;;2.90;99.90;;;;;;5095657;28;20052;-57
2023/12/07 08:01:48;;;;;;;11.03;5.00;;;2.90;99.90;;;;;;5095578;28;20122;-57
2023/12/07 08:04:15;;;;;;;11.02;5.60;;;3.00;99.90;;;;;;5128347;27;20051;-57
2023/12/07 08:06:41;;;;;;;;;;;2.90;99.90;;;;;;5095754;28;20055;-57
2023/12/07 08:09:08;;;;;;;9.02;4.93;;;3.00;99.90;;;;;;5095055;28;19920;-57
2023/12/07 08:11:34;;;;;;;10.23;4.97;;;3.00;99.90;;;;;;5095210;28;20149;-57
2023/12/07 08:14:00;;;;;;;11.05;5.10;;;3.00;99.90;;;;;;5095267;28;20040;-57
2023/12/07 08:16:27;;;;;;;10.10;4.87;;;3.00;99.90;;;;;;5095153;28;20471;-57
2023/12/07 08:18:52;;;;;;;;;;;3.00;99.90;;;;;;5095570;28;20452;-57
2023/12/07 08:21:22;;;;;;;10.73;5.28;;;3.00;99.90;;;;;;5095019;28;19920;-57
2023/12/07 08:23:48;;;;;;;10.10;4.82;;;3.00;99.90;;;;;;5095034;28;20084;-57
2023/12/07 08:26:14;;;;;;;10.35;4.38;;;3.00;99.90;;;;;;5094702;28;20082;-57
2023/12/07 08:28:43;;;;;;;10.38;5.20;;;3.00;99.90;;;;;;5095328;28;20398;-57
2023/12/07 08:31:10;;;;;;;12.52;6.05;;;3.10;99.90;;;;;;5094739;28;20040;-57
2023/12/07 08:33:39;;;;;;;;;;;3.10;99.90;;;;;;5095292;28;20040;-57
2023/12/07 08:36:05;;;;;;;11.57;6.13;;;3.10;99.90;;;;;;5094530;28;19963;-57
2023/12/07 08:38:32;;;;;;;12.60;5.70;;;3.10;99.90;;;;;;5094777;28;20109;-57
2023/12/07 08:40:58;;;;;;;12.13;5.25;;;3.10;99.90;;;;;;5095033;28;20044;-57
2023/12/07 08:43:24;;;;;;;13.93;6.87;;;3.10;99.90;;;;;;5094629;28;20135;-57
2023/12/07 08:45:53;;;;;;;11.95;5.55;;;3.20;99.90;;;;;;5094438;28;20547;-56
2023/12/07 08:48:22;;;;;;;11.07;4.88;;;3.30;99.90;;;;;;5094514;28;20044;-57
2023/12/07 08:50:48;;;;;;;10.18;4.40;;;3.20;99.90;;;;;;5094295;28;20440;-57
2023/12/07 08:53:13;;;;;;;11.02;4.82;;;3.20;99.90;;;;;;5094216;28;20186;-57
2023/12/07 08:55:39;;;;;;;8.60;4.43;;;3.20;99.90;;;;;;5093187;28;20051;-57
2023/12/07 08:58:06;;;;;;;10.10;5.30;;;3.20;99.90;;;;;;5094330;28;20048;-57
2023/12/07 09:00:32;;;;;;;10.13;5.15;;;3.20;99.90;;;;;;5094274;28;20062;-57
2023/12/07 09:02:58;;;;;;;11.00;5.15;;;3.20;99.90;;;;;;5094381;28;20051;-57
2023/12/07 09:05:28;;;;;;;12.07;5.30;;;3.10;99.90;;;;;;5094284;28;20051;-57
2023/12/07 09:07:53;;;;;;;12.88;5.90;;;3.10;99.90;;;;;;5094242;28;20061;-57
2023/12/07 09:10:20;;;;;;;11.43;4.72;;;3.10;99.90;;;;;;5094182;28;20039;-57
2023/12/07 09:12:45;;;;;;;13.18;6.38;;;3.10;99.90;;;;;;5094214;28;20074;-57
2023/12/07 09:15:12;;;;;;;12.50;5.40;;;3.00;99.90;;;;;;5094108;28;20052;-57
2023/12/07 09:17:41;;;;;;;10.02;4.70;;;3.10;99.90;;;;;;5093897;28;20048;-57
2023/12/07 09:20:12;;;;;;;13.63;5.70;;;3.10;99.90;;;;;;5092794;28;20503;-56
2023/12/07 09:22:40;;;;;;;14.20;6.65;;;3.10;99.90;;;;;;5093825;28;20567;-57
2023/12/07 09:25:07;;;;;;;10.90;5.40;;;3.10;99.90;;;;;;5093855;28;20094;-57
2023/12/07 09:27:34;;;;;;;12.90;5.55;;;3.20;99.90;;;;;;5093029;28;20055;-56
2023/12/07 09:30:12;;;;;;;13.30;6.50;;;3.20;99.90;;;;;;5092919;28;20055;-56
2023/12/07 09:32:42;;;;;;;13.07;6.22;;;3.30;99.90;;;;;;5094465;28;20055;-56
2023/12/07 09:35:18;;;;;;;13.68;6.22;;;3.30;99.90;;;;;;5093820;28;20055;-56
2023/12/07 09:37:45;;;;;;;14.05;6.15;;;3.30;99.90;;;;;;5093830;28;20087;-57
2023/12/07 09:40:19;;;;;;;13.77;6.97;;;3.40;99.90;;;;;;5093843;28;20044;-56
2023/12/07 09:42:46;;;;;;;14.65;6.97;;;3.40;99.90;;;;;;5093585;28;20044;-56
2023/12/07 09:45:13;;;;;;;12.13;6.13;;;3.40;99.90;;;;;;5093708;28;20043;-56
2023/12/07 09:47:40;;;;;;;14.70;6.68;;;3.50;99.90;;;;;;5094039;28;20051;-56
2023/12/07 09:50:11;;;;;;;11.82;5.90;;;3.50;99.90;;;;;;5093982;28;20391;-56
2023/12/07 09:52:38;;;;;;;13.68;6.38;;;3.50;99.90;;;;;;5093703;28;20534;-57
2023/12/07 09:55:05;;;;;;;14.25;6.85;;;3.60;99.90;;;;;;5093659;28;20052;-56
2023/12/07 09:57:33;;;;;;;12.63;6.20;;;3.50;99.90;;;;;;5093495;28;20054;-56
2023/12/07 09:59:59;;;;;;;15.65;7.40;;;3.60;99.90;;;;;;5093618;28;20051;-56
2023/12/07 10:02:26;;;;;;;14.82;6.82;;;3.60;99.90;;;;;;5093839;28;20044;-57
2023/12/07 10:05:05;;;;;;;16.65;6.80;;;3.60;99.90;;;;;;5093614;28;20135;-57
2023/12/07 10:07:37;;;;;;;16.15;7.13;;;3.60;99.90;;;;;;5097219;28;20078;-57
2023/12/07 10:10:04;;;;;;;18.13;8.20;;;3.60;99.90;;;;;;5097627;28;20384;-56
2023/12/07 10:12:34;;;;;;;19.13;8.70;;;3.70;99.90;;;;;;5097587;28;20044;-56
2023/12/07 10:15:03;;;;;;;19.20;7.97;;;3.60;99.90;;;;;;5097568;28;20047;-56
2023/12/07 10:17:51;;;;;;;17.02;8.20;;;3.60;99.90;;;;;;5096589;28;20044;-56
2023/12/07 10:20:18;;;;;;;16.55;9.05;;;3.60;99.90;;;;;;5097368;28;20475;-56
2023/12/07 10:22:47;;;;;;;19.05;9.80;;;3.60;99.90;;;;;;5097387;28;20048;-56
2023/12/07 10:25:13;;;;;;;19.10;9.35;;;3.60;99.90;;;;;;5097324;28;20048;-56
2023/12/07 10:27:41;;;;;;;19.73;9.30;;;3.50;99.90;;;;;;5097363;28;20055;-56
2023/12/07 10:30:10;;;;;;;18.30;8.38;;;3.50;99.90;;;;;;5097103;28;20044;-56
2023/12/07 10:32:41;;;;;;;16.80;8.68;;;3.50;99.90;;;;;;5096079;28;20044;-56
2023/12/07 10:35:09;;;;;;;18.88;8.48;;;3.50;99.90;;;;;;5096901;28;20552;-56
2023/12/07 10:37:35;;;;;;;19.25;9.50;;;3.50;99.90;;;;;;5097112;28;20054;-56
2023/12/07 10:40:02;;;;;;;17.65;9.25;;;3.50;99.90;;;;;;5096965;28;20131;-57
2023/12/07 10:42:33;;;;;;;20.50;9.15;;;3.50;99.90;;;;;;5097002;28;20052;-56
2023/12/07 10:45:03;;;;;;;18.13;9.38;;;3.50;99.90;;;;;;5096947;28;20123;-56
2023/12/07 10:47:29;;;;;;;19.00;9.77;;;3.50;99.90;;;;;;5096685;28;20044;-56
2023/12/07 10:49:59;;;;;;;17.45;8.75;;;3.50;99.90;;;;;;5097037;28;20135;-57
2023/12/07 10:52:27;;;;;;;18.38;9.93;;;3.50;99.90;;;;;;5096812;28;20439;-56
2023/12/07 10:55:14;;;;;;;19.48;9.73;;;3.50;99.90;;;;;;5096771;28;20052;-56
2023/12/07 10:57:40;;;;;;;20.77;9.50;;;3.50;99.90;;;;;;5096777;28;20044;-56
2023/12/07 11:00:08;;;;;;;20.53;9.10;;;3.50;99.90;;;;;;5096351;28;20106;-57
2023/12/07 11:02:34;;;;;;;19.67;9.55;;;3.50;99.90;;;;;;5095740;28;20052;-57
2023/12/07 11:05:01;;;;;;;19.20;8.43;;;3.50;99.90;;;;;;5096196;28;20059;-56
2023/12/07 11:07:32;;;;;;;;;;;3.50;99.90;;;;;;5095694;28;20490;-56
2023/12/07 11:10:11;;;;;;;18.98;9.32;;;3.50;99.90;;;;;;5096539;28;19965;-57
2023/12/07 11:13:09;;;;;;;18.55;9.30;;;3.60;99.90;;;;;;5096400;28;20059;-56
2023/12/07 11:15:35;;;;;;;18.27;8.77;;;3.60;99.90;;;;;;5095493;28;20056;-56
2023/12/07 11:18:02;;;;;;;16.05;8.88;;;3.50;99.90;;;;;;5095035;28;20071;-56
2023/12/07 11:20:48;;;;;;;16.80;8.55;;;3.60;99.90;;;;;;5096253;28;20055;-57
2023/12/07 11:23:18;;;;;;;18.23;9.30;;;3.60;99.90;;;;;;5095685;28;20063;-56
2023/12/07 11:25:45;;;;;;;19.85;9.75;;;3.60;99.90;;;;;;5096105;28;20056;-56
2023/12/07 11:28:12;;;;;;;15.88;8.60;;;3.60;99.90;;;;;;5096159;28;20131;-56
2023/12/07 11:30:41;;;;;;;16.60;9.10;;;3.60;99.90;;;;;;5095951;28;20131;-56
2023/12/07 11:33:07;;;;;;;16.77;8.50;;;3.70;99.90;;;;;;5095829;28;20177;-56
2023/12/07 11:35:33;;;;;;;15.33;8.20;;;3.70;99.90;;;;;;5095726;28;20119;-57
2023/12/07 11:38:11;;;;;;;18.57;8.33;;;3.70;99.90;;;;;;5095981;28;20274;-57
2023/12/07 11:40:43;;;;;;;18.15;7.88;;;3.80;99.90;;;;;;5095867;28;20290;-56
2023/12/07 11:43:40;;;;;;;14.95;7.93;;;3.80;99.90;;;;;;5095823;28;20043;-56
2023/12/07 11:46:07;;;;;;;14.88;7.60;;;3.80;99.90;;;;;;5095688;28;20051;-57
2023/12/07 11:48:32;;;;;;;;;;;3.80;99.90;;;;;;5096168;28;20043;-56
2023/12/07 11:50:59;;;;;;;15.43;8.15;;;3.80;99.90;;;;;;5095710;28;20033;-57
2023/12/07 11:53:33;;;;;;;14.40;7.50;;;3.80;99.90;;;;;;5095592;28;20089;-57
2023/12/07 11:56:00;;;;;;;17.25;8.32;;;3.80;99.90;;;;;;5094694;28;20051;-57
2023/12/07 11:58:27;;;;;;;;;;;3.80;99.90;;;;;;5095861;28;20050;-56
2023/12/07 12:00:53;;;;;;;17.50;8.23;;;3.80;99.90;;;;;;5095456;28;19920;-57
2023/12/07 12:03:20;;;;;;;16.70;7.70;;;3.80;99.90;;;;;;5095414;28;20040;-56
2023/12/07 12:05:46;;;;;;;15.48;8.10;;;3.80;99.90;;;;;;5095199;28;20456;-56
2023/12/07 12:08:12;;;;;;;15.20;8.13;;;3.80;99.90;;;;;;5094403;28;20047;-56
2023/12/07 12:10:40;;;;;;;15.13;7.70;;;3.80;99.90;;;;;;5095105;28;20369;-56
2023/12/07 12:13:06;;;;;;;14.82;7.55;;;3.90;99.90;;;;;;5093831;28;20117;-57
2023/12/07 12:15:32;;;;;;;15.30;7.65;;;3.90;99.90;;;;;;5094218;28;20482;-56
2023/12/07 12:17:58;;;;;;;14.18;6.93;;;3.90;99.90;;;;;;5095246;28;20048;-56
2023/12/07 12:20:25;;;;;;;16.75;7.45;;;3.90;99.90;;;;;;5095035;28;20098;-56
2023/12/07 12:22:54;;;;;;;14.27;7.13;;;3.90;99.90;;;;;;5094362;28;20482;-56
2023/12/07 12:25:30;;;;;;;16.83;8.60;;;3.90;99.90;;;;;;5094860;28;20093;-56
2023/12/07 12:28:02;;;;;;;14.07;7.53;;;4.00;99.90;;;;;;5094791;28;20051;-56
2023/12/07 12:30:28;;;;;;;14.13;6.88;;;4.00;99.90;;;;;;5094715;28;20059;-56
2023/12/07 12:32:54;;;;;;;15.38;6.97;;;4.00;99.90;;;;;;5095161;28;20399;-56
2023/12/07 12:35:19;;;;;;;17.02;7.60;;;4.00;99.90;;;;;;5094886;28;20040;-56
2023/12/07 12:37:46;;;;;;;16.07;7.93;;;3.90;99.90;;;;;;5094824;28;20127;-56
2023/12/07 12:40:18;;;;;;;13.70;6.95;;;4.00;99.90;;;;;;5094557;28;20572;-56
2023/12/07 12:42:48;;;;;;;13.77;7.30;;;4.00;99.90;;;;;;5094916;28;20051;-56
2023/12/07 12:45:15;;;;;;;15.23;7.85;;;3.90;99.90;;;;;;5094499;28;20506;-56
2023/12/07 12:47:45;;;;;;;;;;;3.90;99.90;;;;;;5094957;28;20122;-56
2023/12/07 12:50:32;;;;;;;17.95;8.48;;;3.90;99.90;;;;;;5094336;28;19927;-56
2023/12/07 12:52:59;;;;;;;19.08;9.77;;;3.90;99.90;;;;;;5094177;28;20055;-56